createdAt,value
2022-08-23T00:01:50.575Z,21.52
2022-08-23T00:04:23.451Z,21.49
2022-08-23T00:07:01.164Z,21.46
2022-08-23T00:09:29.079Z,21.34
2022-08-23T00:12:03.533Z,21.25
2022-08-23T00:14:32.071Z,21.24
2022-08-23T00:16:59.343Z,21.24
2022-08-23T00:19:26.608Z,21.19
2022-08-23T00:21:55.203Z,21.10
2022-08-23T00:24:23.883Z,21.10
2022-08-23T00:26:59.883Z,21.08
2022-08-23T00:29:31.651Z,21.10
2022-08-23T00:31:59.199Z,21.07
2022-08-23T00:34:25.910Z,20.99
2022-08-23T00:36:52.961Z,20.86
2022-08-23T00:39:19.486Z,20.91
2022-08-23T00:41:47.771Z,20.93
2022-08-23T00:44:39.525Z,20.81
2022-08-23T00:47:26.198Z,20.80
2022-08-23T00:50:03.987Z,20.77
2022-08-23T00:53:17.628Z,20.73
2022-08-23T00:55:46.626Z,20.60
2022-08-23T00:58:16.139Z,20.51
2022-08-23T01:00:42.595Z,20.44
2022-08-23T01:03:11.326Z,20.43
2022-08-23T01:06:01.578Z,20.45
2022-08-23T01:08:31.331Z,20.27
2022-08-23T01:11:08.829Z,20.29
2022-08-23T01:13:51.005Z,20.30
2022-08-23T01:16:25.788Z,20.14
2022-08-23T01:18:54.723Z,20.12
2022-08-23T01:21:36.583Z,20.15
2022-08-23T01:24:08.143Z,20.09
2022-08-23T01:26:35.256Z,19.99
2022-08-23T01:29:05.767Z,19.98
2022-08-23T01:31:33.311Z,20.05
2022-08-23T01:34:06.766Z,19.86
2022-08-23T01:36:35.719Z,19.87
2022-08-23T01:39:04.507Z,19.86
2022-08-23T01:41:31.980Z,19.88
2022-08-23T01:43:58.752Z,19.85
2022-08-23T01:46:27.428Z,19.81
2022-08-23T01:48:55.540Z,19.82
2022-08-23T01:51:23.885Z,19.66
2022-08-23T01:53:50.944Z,19.72
2022-08-23T01:56:27.571Z,19.68
2022-08-23T01:59:08.608Z,19.70
2022-08-23T02:01:42.739Z,19.57
2022-08-23T02:04:09.201Z,19.50
2022-08-23T02:06:35.898Z,19.43
2022-08-23T02:09:05.792Z,19.50
2022-08-23T02:11:45.024Z,19.40
2022-08-23T02:14:18.516Z,19.28
2022-08-23T02:17:04.469Z,19.18
2022-08-23T02:19:35.196Z,19.26
2022-08-23T02:22:03.314Z,19.16
2022-08-23T02:24:31.182Z,19.15
2022-08-23T02:27:02.018Z,19.18
2022-08-23T02:29:29.733Z,19.18
2022-08-23T02:31:58.354Z,19.10
2022-08-23T02:34:36.732Z,18.93
2022-08-23T02:37:03.527Z,18.97
2022-08-23T02:39:30.485Z,18.97
2022-08-23T02:41:57.550Z,18.95
2022-08-23T02:44:24.683Z,18.98
2022-08-23T02:46:51.247Z,18.89
2022-08-23T02:49:18.512Z,18.94
2022-08-23T02:51:46.201Z,18.80
2022-08-23T02:54:13.288Z,18.83
2022-08-23T02:56:40.358Z,18.85
2022-08-23T02:59:08.214Z,18.78
2022-08-23T03:01:37.704Z,18.68
2022-08-23T03:04:24.901Z,18.79
2022-08-23T03:06:51.572Z,18.68
2022-08-23T03:09:18.605Z,18.63
2022-08-23T03:11:47.382Z,18.53
2022-08-23T03:14:14.200Z,18.46
2022-08-23T03:16:41.223Z,18.41
2022-08-23T03:19:08.607Z,18.56
2022-08-23T03:21:35.852Z,18.50
2022-08-23T03:24:06.911Z,18.40
2022-08-23T03:26:36.751Z,18.41
2022-08-23T03:29:03.762Z,18.45
2022-08-23T03:31:37.039Z,18.38
2022-08-23T03:34:09.369Z,18.24
2022-08-23T03:36:35.775Z,18.33
2022-08-23T03:39:04.703Z,18.24
2022-08-23T03:41:31.131Z,18.24
2022-08-23T03:43:57.726Z,18.26
2022-08-23T03:46:29.026Z,18.32
2022-08-23T03:49:02.243Z,18.28
2022-08-23T03:51:36.477Z,18.16
2022-08-23T03:54:03.549Z,18.11
2022-08-23T03:56:33.106Z,17.98
2022-08-23T03:59:04.300Z,17.95
2022-08-23T04:01:30.797Z,17.95
2022-08-23T04:04:01.265Z,17.87
2022-08-23T04:06:29.795Z,17.90
2022-08-23T04:08:56.439Z,17.73
2022-08-23T04:11:23.496Z,17.83
2022-08-23T04:13:56.723Z,17.84
2022-08-23T04:16:23.273Z,17.73
2022-08-23T04:18:49.807Z,17.62
2022-08-23T04:21:22.384Z,17.68
2022-08-23T04:23:49.470Z,17.67
2022-08-23T04:26:15.985Z,17.71
2022-08-23T04:28:43.731Z,17.73
2022-08-23T04:31:10.469Z,17.67
2022-08-23T04:33:40.453Z,17.58
2022-08-23T04:36:08.786Z,17.46
2022-08-23T04:38:35.244Z,17.50
2022-08-23T04:41:23.749Z,17.55
2022-08-23T04:43:56.737Z,17.53
2022-08-23T04:46:24.407Z,17.50
2022-08-23T04:48:54.000Z,17.49
2022-08-23T04:51:22.125Z,17.53
2022-08-23T04:53:48.940Z,17.50
2022-08-23T04:56:34.708Z,17.25
2022-08-23T04:59:01.962Z,17.43
2022-08-23T05:01:28.879Z,17.41
2022-08-23T05:03:56.048Z,17.39
2022-08-23T05:06:25.119Z,17.34
2022-08-23T05:08:53.084Z,17.42
2022-08-23T05:11:20.470Z,17.48
2022-08-23T05:13:48.436Z,17.57
2022-08-23T05:16:15.496Z,17.53
2022-08-23T05:18:49.633Z,17.48
2022-08-23T05:21:19.527Z,17.39
2022-08-23T05:23:50.756Z,17.43
2022-08-23T05:26:21.304Z,17.52
2022-08-23T05:28:49.852Z,17.55
2022-08-23T05:31:25.940Z,17.39
2022-08-23T05:33:54.971Z,17.60
2022-08-23T05:36:55.818Z,17.47
2022-08-23T05:39:37.099Z,17.48
2022-08-23T05:42:10.660Z,17.54
2022-08-23T05:44:37.779Z,17.46
2022-08-23T05:47:10.685Z,17.64
2022-08-23T05:49:46.586Z,17.68
2022-08-23T05:52:14.158Z,17.83
2022-08-23T05:54:42.710Z,17.89
2022-08-23T05:57:41.478Z,17.96
2022-08-23T06:00:15.242Z,17.90
2022-08-23T06:02:51.166Z,17.94
2022-08-23T06:05:19.595Z,17.89
2022-08-23T06:07:47.637Z,17.82
2022-08-23T06:10:20.182Z,17.88
2022-08-23T06:12:50.772Z,18.09
2022-08-23T06:15:17.452Z,18.11
2022-08-23T06:17:44.044Z,18.21
2022-08-23T06:20:11.011Z,18.22
2022-08-23T06:22:55.260Z,18.47
2022-08-23T06:25:22.251Z,18.50
2022-08-23T06:28:10.763Z,18.61
2022-08-23T06:30:39.994Z,18.58
2022-08-23T06:33:16.196Z,18.80
2022-08-23T06:35:46.539Z,18.94
2022-08-23T06:38:29.011Z,19.09
2022-08-23T06:41:14.015Z,19.18
2022-08-23T06:44:20.021Z,19.33
2022-08-23T06:47:02.060Z,19.37
2022-08-23T06:49:28.891Z,19.41
2022-08-23T06:51:57.830Z,19.51
2022-08-23T06:54:44.242Z,19.57
2022-08-23T06:57:37.766Z,19.61
2022-08-23T07:00:22.791Z,19.56
2022-08-23T07:03:24.732Z,19.65
2022-08-23T07:06:09.930Z,19.70
2022-08-23T07:08:37.637Z,19.80
2022-08-23T07:11:04.376Z,19.83
2022-08-23T07:13:31.042Z,19.91
2022-08-23T07:15:59.327Z,20.01
2022-08-23T07:18:26.666Z,20.04
2022-08-23T07:20:58.782Z,20.10
2022-08-23T07:23:27.049Z,20.17
2022-08-23T07:25:54.396Z,20.20
2022-08-23T07:28:25.127Z,20.27
2022-08-23T07:30:51.825Z,20.39
2022-08-23T07:33:18.383Z,20.44
2022-08-23T07:36:16.430Z,20.56
2022-08-23T07:38:45.439Z,20.62
2022-08-23T07:41:12.998Z,20.68
2022-08-23T07:43:39.662Z,20.75
2022-08-23T07:46:08.846Z,20.86
2022-08-23T07:48:53.441Z,20.92
2022-08-23T07:51:25.093Z,21.03
2022-08-23T07:53:52.048Z,21.06
2022-08-23T07:56:21.339Z,21.10
2022-08-23T07:58:57.969Z,21.17
2022-08-23T08:01:53.679Z,21.27
2022-08-23T08:04:22.180Z,21.37
2022-08-23T08:07:10.330Z,21.49
2022-08-23T08:09:42.231Z,21.64
2022-08-23T08:12:08.859Z,21.70
2022-08-23T08:14:37.326Z,21.82
2022-08-23T08:17:04.402Z,21.91
2022-08-23T08:19:57.043Z,22.01
2022-08-23T08:22:46.739Z,22.12
2022-08-23T08:25:14.972Z,22.15
2022-08-23T08:27:42.755Z,22.21
2022-08-23T08:30:11.833Z,22.26
2022-08-23T08:32:46.709Z,22.25
2022-08-23T08:35:13.812Z,22.23
2022-08-23T08:37:40.542Z,22.24
2022-08-23T08:40:07.991Z,22.25
2022-08-23T08:43:06.272Z,22.32
2022-08-23T08:46:02.988Z,22.40
2022-08-23T08:48:39.369Z,22.45
2022-08-23T08:51:19.671Z,22.54
2022-08-23T08:53:49.424Z,22.70
2022-08-23T08:56:32.944Z,22.89
2022-08-23T08:59:24.015Z,23.03
2022-08-23T09:01:51.448Z,23.19
2022-08-23T09:04:25.691Z,23.33
2022-08-23T09:07:11.119Z,23.48
2022-08-23T09:10:25.190Z,23.55
2022-08-23T09:13:32.956Z,23.65
2022-08-23T09:16:41.249Z,23.81
2022-08-23T09:19:08.488Z,23.87
2022-08-23T09:21:47.223Z,23.99
2022-08-23T09:24:14.430Z,24.00
2022-08-23T09:26:54.270Z,24.13
2022-08-23T09:29:31.272Z,24.30
2022-08-23T09:32:03.578Z,24.40
2022-08-23T09:34:36.527Z,24.48
2022-08-23T09:37:17.602Z,24.61
2022-08-23T09:39:49.593Z,24.76
2022-08-23T09:42:32.733Z,24.89
2022-08-23T09:44:59.694Z,25.00
2022-08-23T09:47:38.463Z,25.13
2022-08-23T09:50:25.186Z,25.33
2022-08-23T09:52:59.020Z,25.43
2022-08-23T09:55:31.667Z,25.48
2022-08-23T09:58:00.531Z,25.53
2022-08-23T10:00:34.149Z,25.64
2022-08-23T10:03:27.662Z,25.75
2022-08-23T10:06:01.645Z,25.81
2022-08-23T10:08:40.916Z,25.90
2022-08-23T10:11:23.775Z,26.23
2022-08-23T10:13:52.235Z,26.33
2022-08-23T10:16:39.703Z,26.50
2022-08-23T10:19:56.127Z,26.68
2022-08-23T10:22:26.747Z,26.73
2022-08-23T10:25:30.337Z,26.76
2022-08-23T10:28:47.415Z,26.87
2022-08-23T10:31:41.852Z,27.01
2022-08-23T10:34:47.112Z,27.10
2022-08-23T10:37:36.426Z,27.22
2022-08-23T10:40:28.885Z,27.32
2022-08-23T10:43:07.683Z,27.52
2022-08-23T10:45:40.038Z,27.59
2022-08-23T10:48:28.502Z,27.74
2022-08-23T10:50:59.559Z,27.86
2022-08-23T10:53:37.494Z,27.97
2022-08-23T10:56:06.768Z,28.06
2022-08-23T10:58:56.013Z,28.11
2022-08-23T11:01:28.916Z,28.18
2022-08-23T11:04:04.155Z,28.28
2022-08-23T11:06:45.809Z,28.38
2022-08-23T11:09:19.661Z,28.48
2022-08-23T11:11:49.864Z,28.56
2022-08-23T11:14:36.835Z,28.69
2022-08-23T11:17:11.662Z,28.64
2022-08-23T11:19:52.395Z,28.71
2022-08-23T11:22:21.621Z,28.59
2022-08-23T11:24:54.746Z,28.42
2022-08-23T11:27:33.293Z,28.52
2022-08-23T11:30:34.828Z,28.43
2022-08-23T11:33:26.250Z,28.63
2022-08-23T11:36:16.613Z,28.80
2022-08-23T11:38:43.636Z,28.83
2022-08-23T11:41:18.874Z,28.47
2022-08-23T11:43:56.217Z,28.10
2022-08-23T11:46:22.745Z,27.78
2022-08-23T11:49:27.035Z,27.62
2022-08-23T11:52:02.233Z,27.44
2022-08-23T11:55:06.972Z,27.22
2022-08-23T11:57:55.366Z,27.13
2022-08-23T12:00:28.902Z,27.06
2022-08-23T12:03:04.545Z,27.44
2022-08-23T12:05:34.304Z,27.29
2022-08-23T12:08:04.232Z,27.20
2022-08-23T12:10:37.985Z,27.34
2022-08-23T12:13:19.637Z,27.52
2022-08-23T12:16:19.721Z,27.51
2022-08-23T12:18:49.286Z,27.60
2022-08-23T12:21:23.968Z,27.65
2022-08-23T12:23:54.143Z,27.55
2022-08-23T12:26:26.883Z,27.37
2022-08-23T12:29:39.899Z,27.19
2022-08-23T12:32:09.350Z,27.08
2022-08-23T12:35:03.396Z,27.31
2022-08-23T12:38:08.501Z,27.68
2022-08-23T12:40:42.801Z,28.03
2022-08-23T12:43:19.771Z,28.30
2022-08-23T12:45:57.687Z,28.44
2022-08-23T12:48:27.631Z,28.53
2022-08-23T12:51:02.090Z,28.63
2022-08-23T12:53:44.004Z,28.73
2022-08-23T12:56:17.233Z,28.77
2022-08-23T12:58:49.272Z,28.90
2022-08-23T13:01:23.145Z,28.84
2022-08-23T13:03:59.095Z,28.75
2022-08-23T13:06:31.250Z,28.53
2022-08-23T13:09:35.422Z,28.51
2022-08-23T13:12:03.500Z,28.61
2022-08-23T13:15:04.996Z,28.69
2022-08-23T13:17:38.610Z,28.66
2022-08-23T13:20:22.604Z,28.74
2022-08-23T13:23:02.477Z,28.81
2022-08-23T13:25:38.732Z,28.85
2022-08-23T13:28:21.372Z,29.00
2022-08-23T13:31:01.032Z,28.97
2022-08-23T13:33:27.470Z,29.12
2022-08-23T13:36:14.611Z,29.10
2022-08-23T13:38:43.253Z,29.19
2022-08-23T13:41:26.285Z,29.12
2022-08-23T13:43:53.185Z,29.06
2022-08-23T13:46:28.481Z,29.06
2022-08-23T13:49:00.276Z,29.01
2022-08-23T13:51:36.968Z,28.93
2022-08-23T13:54:15.535Z,28.65
2022-08-23T13:56:47.513Z,28.45
2022-08-23T13:59:22.812Z,28.30
2022-08-23T14:01:54.073Z,28.24
2022-08-23T14:04:20.634Z,28.04
2022-08-23T14:06:48.924Z,27.90
2022-08-23T14:09:16.065Z,27.77
2022-08-23T14:11:43.002Z,27.78
2022-08-23T14:14:11.926Z,27.93
2022-08-23T14:16:40.063Z,27.93
2022-08-23T14:19:55.352Z,27.84
2022-08-23T14:21:58.224Z,27.71
2022-08-23T14:24:26.904Z,27.64
2022-08-23T14:26:54.718Z,27.61
2022-08-23T14:29:22.517Z,27.60
2022-08-23T14:31:50.846Z,27.57
2022-08-23T14:34:17.451Z,27.49
2022-08-23T14:37:21.704Z,27.44
2022-08-23T14:39:30.529Z,27.41
2022-08-23T14:41:58.075Z,27.39
2022-08-23T14:44:25.667Z,27.35
2022-08-23T14:46:54.424Z,27.37
2022-08-23T14:49:21.791Z,27.38
2022-08-23T14:51:50.242Z,27.38
2022-08-23T14:54:23.734Z,27.38
2022-08-23T14:56:50.783Z,27.35
2022-08-23T14:59:17.358Z,27.35
2022-08-23T15:01:44.860Z,27.38
2022-08-23T15:04:16.132Z,27.37
2022-08-23T15:07:00.452Z,27.37
2022-08-23T15:09:29.054Z,27.33
2022-08-23T15:14:41.814Z,27.25
2022-08-23T15:17:08.323Z,27.20
2022-08-23T15:19:35.149Z,27.19
2022-08-23T15:22:18.579Z,27.20
2022-08-23T15:24:48.911Z,27.15
2022-08-23T15:27:15.410Z,27.15
2022-08-23T15:29:41.802Z,27.13
2022-08-23T15:32:10.160Z,27.10
2022-08-23T15:34:40.153Z,27.10
2022-08-23T15:37:13.007Z,27.12
2022-08-23T15:39:39.479Z,27.11
2022-08-23T15:42:06.713Z,27.10
2022-08-23T15:44:33.134Z,27.10
2022-08-23T15:46:59.631Z,27.08
2022-08-23T15:49:27.899Z,27.10
2022-08-23T15:51:55.113Z,27.07
2022-08-23T15:54:21.493Z,27.07
2022-08-23T15:56:49.844Z,27.05
2022-08-23T15:59:19.852Z,27.05
2022-08-23T16:01:46.423Z,27.08
2022-08-23T16:04:13.124Z,27.06
2022-08-23T16:06:41.418Z,27.07
2022-08-23T16:09:16.398Z,27.06
2022-08-23T16:11:43.411Z,27.02
2022-08-23T16:14:10.324Z,27.02
2022-08-23T16:16:38.205Z,27.00
2022-08-23T16:19:05.768Z,26.97
2022-08-23T16:21:32.456Z,26.98
2022-08-23T16:23:59.642Z,26.93
2022-08-23T16:26:35.030Z,26.92
2022-08-23T16:29:04.004Z,26.91
2022-08-23T16:31:38.982Z,26.90
2022-08-23T16:34:11.709Z,26.86
2022-08-23T16:36:43.719Z,26.86
2022-08-23T16:39:11.574Z,26.84
2022-08-23T16:41:38.417Z,26.87
2022-08-23T16:44:05.769Z,26.90
2022-08-23T16:46:32.903Z,26.90
2022-08-23T16:48:59.356Z,26.93
2022-08-23T16:51:25.756Z,26.91
2022-08-23T16:53:55.653Z,26.90
2022-08-23T16:56:30.735Z,26.87
2022-08-23T16:58:57.189Z,26.92
2022-08-23T17:01:23.927Z,26.89
2022-08-23T17:03:50.539Z,26.89
2022-08-23T17:06:17.129Z,26.88
2022-08-23T17:08:43.597Z,26.89
2022-08-23T17:11:14.227Z,26.88
2022-08-23T17:13:40.718Z,26.88
2022-08-23T17:16:07.670Z,26.84
2022-08-23T17:18:34.100Z,26.86
2022-08-23T17:21:00.526Z,26.84
2022-08-23T17:23:26.882Z,26.86
2022-08-23T17:25:53.272Z,26.82
2022-08-23T17:28:19.749Z,26.84
2022-08-23T17:30:46.175Z,26.80
2022-08-23T17:33:12.665Z,26.78
2022-08-23T17:35:39.495Z,26.75
2022-08-23T17:38:06.475Z,26.73
2022-08-23T17:40:36.565Z,26.69
2022-08-23T17:43:04.370Z,26.67
2022-08-23T17:45:39.504Z,26.65
2022-08-23T17:48:06.343Z,26.60
2022-08-23T17:50:32.832Z,26.54
2022-08-23T17:52:59.311Z,26.47
2022-08-23T17:55:25.823Z,26.40
2022-08-23T17:58:02.217Z,26.34
2022-08-23T18:00:35.511Z,26.28
2022-08-23T18:03:03.042Z,26.21
2022-08-23T18:05:33.164Z,26.13
2022-08-23T18:08:00.294Z,26.07
2022-08-23T18:10:27.334Z,25.99
2022-08-23T18:12:53.723Z,25.94
2022-08-23T18:15:20.493Z,25.85
2022-08-23T18:17:47.140Z,25.81
2022-08-23T18:20:13.847Z,25.74
2022-08-23T18:22:40.487Z,25.65
2022-08-23T18:25:08.820Z,25.63
2022-08-23T18:27:54.293Z,25.51
2022-08-23T18:30:21.124Z,25.41
2022-08-23T18:32:47.534Z,25.44
2022-08-23T18:35:14.019Z,25.27
2022-08-23T18:37:41.688Z,25.18
2022-08-23T18:40:10.041Z,25.18
2022-08-23T18:42:37.550Z,25.08
2022-08-23T18:45:05.207Z,25.03
2022-08-23T18:47:31.708Z,24.94
2022-08-23T18:49:58.126Z,24.94
2022-08-23T18:52:24.611Z,24.90
2022-08-23T18:54:50.987Z,24.80
2022-08-23T18:57:17.680Z,24.73
2022-08-23T18:59:44.382Z,24.72
2022-08-23T19:02:10.901Z,24.62
2022-08-23T19:04:37.514Z,24.54
2022-08-23T19:07:04.832Z,24.43
2022-08-23T19:09:31.244Z,24.33
2022-08-23T19:12:00.142Z,24.32
2022-08-23T19:14:28.227Z,24.27
2022-08-23T19:16:55.154Z,24.21
2022-08-23T19:19:22.918Z,24.08
2022-08-23T19:21:50.191Z,24.09
2022-08-23T19:24:17.035Z,24.04
2022-08-23T19:26:47.290Z,23.98
2022-08-23T19:29:14.761Z,23.91
2022-08-23T19:31:47.714Z,23.86
2022-08-23T19:34:16.655Z,23.80
2022-08-23T19:36:46.899Z,23.80
2022-08-23T19:39:16.319Z,23.72
2022-08-23T19:41:42.836Z,23.65
2022-08-23T19:44:09.954Z,23.63
2022-08-23T19:46:41.155Z,23.62
2022-08-23T19:49:10.461Z,23.55
2022-08-23T19:51:38.020Z,23.50
2022-08-23T19:54:10.983Z,23.50
2022-08-23T19:56:45.836Z,23.42
2022-08-23T19:59:16.156Z,23.33
2022-08-23T20:01:42.754Z,23.30
2022-08-23T20:04:09.244Z,23.30
2022-08-23T20:06:35.990Z,23.25
2022-08-23T20:09:02.558Z,23.17
2022-08-23T20:11:29.527Z,23.06
2022-08-23T20:13:56.560Z,23.05
2022-08-23T20:16:26.598Z,23.06
2022-08-23T20:18:54.235Z,23.00
2022-08-23T20:21:23.906Z,22.98
2022-08-23T20:24:01.447Z,22.91
2022-08-23T20:26:30.247Z,22.91
2022-08-23T20:28:59.753Z,22.86
2022-08-23T20:31:29.702Z,22.79
2022-08-23T20:33:56.771Z,22.79
2022-08-23T20:36:24.351Z,22.75
2022-08-23T20:38:50.841Z,22.64
2022-08-23T20:41:17.467Z,22.67
2022-08-23T20:43:47.622Z,22.67
2022-08-23T20:46:14.089Z,22.76
2022-08-23T20:48:40.488Z,22.69
2022-08-23T20:51:07.369Z,22.62
2022-08-23T20:53:34.986Z,22.64
2022-08-23T20:56:01.886Z,22.62
2022-08-23T20:58:28.487Z,22.52
2022-08-23T21:00:55.006Z,22.47
2022-08-23T21:03:21.646Z,22.42
2022-08-23T21:05:48.184Z,22.44
2022-08-23T21:08:16.136Z,22.29
2022-08-23T21:10:44.829Z,22.27
2022-08-23T21:13:11.459Z,22.33
2022-08-23T21:15:37.969Z,22.18
2022-08-23T21:18:04.810Z,22.18
2022-08-23T21:20:31.201Z,22.16
2022-08-23T21:22:57.649Z,22.16
2022-08-23T21:25:24.435Z,21.98
2022-08-23T21:27:50.930Z,21.99
2022-08-23T21:30:17.521Z,21.96
2022-08-23T21:32:43.958Z,21.89
2022-08-23T21:35:11.213Z,21.80
2022-08-23T21:37:38.090Z,21.79
2022-08-23T21:40:05.238Z,21.83
2022-08-23T21:42:31.738Z,21.78
2022-08-23T21:44:58.238Z,21.73
2022-08-23T21:47:24.668Z,21.65
2022-08-23T21:49:51.094Z,21.65
2022-08-23T21:52:17.494Z,21.54
2022-08-23T21:54:43.943Z,21.48
2022-08-23T21:57:10.911Z,21.51
2022-08-23T21:59:37.346Z,21.51
2022-08-23T22:02:04.133Z,21.49
2022-08-23T22:04:30.598Z,21.50
2022-08-23T22:06:57.235Z,21.38
2022-08-23T22:09:31.433Z,21.29
2022-08-23T22:11:58.934Z,21.32
2022-08-23T22:14:28.732Z,21.37
2022-08-23T22:16:58.878Z,21.36
2022-08-23T22:19:25.564Z,21.29
2022-08-23T22:21:53.023Z,21.37
2022-08-23T22:24:25.601Z,21.34
2022-08-23T22:26:54.507Z,21.29
2022-08-23T22:29:21.217Z,21.31
2022-08-23T22:31:48.212Z,21.20
2022-08-23T22:34:14.937Z,21.26
2022-08-23T22:36:41.927Z,21.21
2022-08-23T22:39:08.480Z,21.15
2022-08-23T22:41:35.150Z,21.01
2022-08-23T22:44:02.656Z,20.98
2022-08-23T22:46:31.568Z,21.04
2022-08-23T22:48:58.378Z,20.98
2022-08-23T22:51:31.216Z,20.98
2022-08-23T22:54:00.718Z,21.00
2022-08-23T22:56:33.348Z,20.94
2022-08-23T22:59:00.024Z,20.82
2022-08-23T23:01:32.906Z,20.86
2022-08-23T23:04:02.001Z,20.82
2022-08-23T23:06:29.044Z,20.75
2022-08-23T23:08:56.171Z,20.60
2022-08-23T23:11:24.321Z,20.57
2022-08-23T23:13:50.835Z,20.67
2022-08-23T23:16:22.281Z,20.60
2022-08-23T23:19:07.940Z,20.44
2022-08-23T23:21:43.976Z,20.59
2022-08-23T23:24:12.926Z,20.59
2022-08-23T23:26:39.418Z,20.53
2022-08-23T23:29:06.164Z,20.44
2022-08-23T23:31:32.563Z,20.42
2022-08-23T23:33:59.047Z,20.39
2022-08-23T23:36:25.766Z,20.27
2022-08-23T23:38:52.371Z,20.30
2022-08-23T23:41:20.379Z,20.31
2022-08-23T23:43:47.748Z,20.24
2022-08-23T23:46:16.606Z,20.24
2022-08-23T23:48:46.475Z,20.14
2022-08-23T23:51:19.708Z,20.19
2022-08-23T23:53:46.609Z,20.20
2022-08-23T23:56:15.557Z,20.19
2022-08-23T23:58:42.067Z,20.14
